sensor_id;sensor_type;location;lat;lon;timestamp;pressure;altitude;pressure_sealevel;temperature;humidity
77110;BME280;66062;52.464;16.922;2023-03-12T00:01:34;99791.00;;;-0.61;89.57
77110;BME280;66062;52.464;16.922;2023-03-12T00:04:00;99791.00;;;-0.61;89.90
77110;BME280;66062;52.464;16.922;2023-03-12T00:06:26;99792.66;;;-0.60;89.78
77110;BME280;66062;52.464;16.922;2023-03-12T00:08:51;99795.53;;;-0.65;90.01
77110;BME280;66062;52.464;16.922;2023-03-12T00:11:18;99791.81;;;-0.61;90.10
77110;BME280;66062;52.464;16.922;2023-03-12T00:13:48;99797.88;;;-0.60;89.48
77110;BME280;66062;52.464;16.922;2023-03-12T00:16:14;99800.63;;;-0.62;89.98
77110;BME280;66062;52.464;16.922;2023-03-12T00:18:41;99787.88;;;-0.68;90.63
77110;BME280;66062;52.464;16.922;2023-03-12T00:21:07;99789.72;;;-0.70;90.36
77110;BME280;66062;52.464;16.922;2023-03-12T00:23:33;99782.56;;;-0.66;90.54
77110;BME280;66062;52.464;16.922;2023-03-12T00:26:02;99794.03;;;-0.69;90.45
77110;BME280;66062;52.464;16.922;2023-03-12T00:28:28;99794.22;;;-0.72;90.89
77110;BME280;66062;52.464;16.922;2023-03-12T00:31:16;99789.84;;;-0.71;91.19
77110;BME280;66062;52.464;16.922;2023-03-12T00:33:43;99792.44;;;-0.71;90.61
77110;BME280;66062;52.464;16.922;2023-03-12T00:36:09;99792.63;;;-0.74;91.68
77110;BME280;66062;52.464;16.922;2023-03-12T00:38:34;99790.25;;;-0.79;91.34
77110;BME280;66062;52.464;16.922;2023-03-12T00:41:00;99806.25;;;-0.83;92.16
77110;BME280;66062;52.464;16.922;2023-03-12T00:43:25;99799.63;;;-0.75;91.50
77110;BME280;66062;52.464;16.922;2023-03-12T00:45:51;99797.94;;;-0.76;91.67
77110;BME280;66062;52.464;16.922;2023-03-12T00:48:16;99798.78;;;-0.75;91.64
77110;BME280;66062;52.464;16.922;2023-03-12T00:50:42;99812.06;;;-0.78;91.86
77110;BME280;66062;52.464;16.922;2023-03-12T00:53:07;99805.72;;;-0.74;91.90
77110;BME280;66062;52.464;16.922;2023-03-12T00:55:32;99804.88;;;-0.75;91.93
77110;BME280;66062;52.464;16.922;2023-03-12T00:57:58;99812.34;;;-0.83;92.59
77110;BME280;66062;52.464;16.922;2023-03-12T01:00:23;99813.53;;;-0.89;92.75
77110;BME280;66062;52.464;16.922;2023-03-12T01:02:49;99817.13;;;-0.75;92.39
77110;BME280;66062;52.464;16.922;2023-03-12T01:05:15;99821.00;;;-0.67;91.43
77110;BME280;66062;52.464;16.922;2023-03-12T01:07:41;99812.34;;;-0.53;91.19
77110;BME280;66062;52.464;16.922;2023-03-12T01:10:08;99807.97;;;-0.38;89.82
77110;BME280;66062;52.464;16.922;2023-03-12T01:12:34;99817.44;;;-0.36;89.63
77110;BME280;66062;52.464;16.922;2023-03-12T01:15:00;99809.72;;;-0.39;89.54
77110;BME280;66062;52.464;16.922;2023-03-12T01:17:26;99810.97;;;-0.30;89.57
77110;BME280;66062;52.464;16.922;2023-03-12T01:19:51;99815.38;;;-0.31;89.10
77110;BME280;66062;52.464;16.922;2023-03-12T01:22:16;99806.19;;;-0.24;89.20
77110;BME280;66062;52.464;16.922;2023-03-12T01:24:42;99811.44;;;-0.24;88.88
77110;BME280;66062;52.464;16.922;2023-03-12T01:27:07;99819.88;;;-0.19;88.93
77110;BME280;66062;52.464;16.922;2023-03-12T01:29:33;99824.97;;;-0.16;88.71
77110;BME280;66062;52.464;16.922;2023-03-12T01:31:58;99812.00;;;-0.19;88.38
77110;BME280;66062;52.464;16.922;2023-03-12T01:34:23;99814.47;;;-0.16;88.68
77110;BME280;66062;52.464;16.922;2023-03-12T01:36:49;99811.94;;;-0.17;88.61
77110;BME280;66062;52.464;16.922;2023-03-12T01:39:14;99812.56;;;-0.14;88.75
77110;BME280;66062;52.464;16.922;2023-03-12T01:41:40;99814.06;;;-0.10;88.54
77110;BME280;66062;52.464;16.922;2023-03-12T01:44:06;99812.41;;;-0.11;88.48
77110;BME280;66062;52.464;16.922;2023-03-12T01:49:06;99800.59;;;-0.04;88.36
77110;BME280;66062;52.464;16.922;2023-03-12T01:51:56;99800.78;;;-0.07;87.93
77110;BME280;66062;52.464;16.922;2023-03-12T01:54:25;99804.34;;;-0.08;88.45
77110;BME280;66062;52.464;16.922;2023-03-12T01:56:54;99809.59;;;-0.08;88.59
77110;BME280;66062;52.464;16.922;2023-03-12T01:59:24;99800.50;;;-0.02;88.64
77110;BME280;66062;52.464;16.922;2023-03-12T02:01:52;99802.09;;;-0.14;88.25
77110;BME280;66062;52.464;16.922;2023-03-12T02:04:20;99800.69;;;-0.19;89.10
77110;BME280;66062;52.464;16.922;2023-03-12T02:07:03;99808.75;;;-0.22;89.26
77110;BME280;66062;52.464;16.922;2023-03-12T02:09:31;99807.81;;;-0.21;89.21
77110;BME280;66062;52.464;16.922;2023-03-12T02:11:57;99809.00;;;-0.27;89.69
77110;BME280;66062;52.464;16.922;2023-03-12T02:14:26;99807.69;;;-0.20;89.36
77110;BME280;66062;52.464;16.922;2023-03-12T02:16:52;99801.03;;;-0.25;89.13
77110;BME280;66062;52.464;16.922;2023-03-12T02:19:46;99806.03;;;-0.21;89.51
77110;BME280;66062;52.464;16.922;2023-03-12T02:22:14;99807.13;;;-0.25;89.04
77110;BME280;66062;52.464;16.922;2023-03-12T02:24:59;99800.09;;;-0.24;89.61
77110;BME280;66062;52.464;16.922;2023-03-12T02:27:33;99805.28;;;-0.23;89.46
77110;BME280;66062;52.464;16.922;2023-03-12T02:30:01;99815.00;;;-0.25;89.32
77110;BME280;66062;52.464;16.922;2023-03-12T02:32:32;99816.31;;;-0.18;89.25
77110;BME280;66062;52.464;16.922;2023-03-12T02:35:00;99819.72;;;-0.16;89.20
77110;BME280;66062;52.464;16.922;2023-03-12T02:37:26;99813.91;;;-0.07;88.95
77110;BME280;66062;52.464;16.922;2023-03-12T02:40:09;99829.44;;;-0.04;88.52
77110;BME280;66062;52.464;16.922;2023-03-12T02:42:37;99830.78;;;0.04;88.13
77110;BME280;66062;52.464;16.922;2023-03-12T02:45:03;99824.47;;;0.06;87.70
77110;BME280;66062;52.464;16.922;2023-03-12T02:47:29;99834.88;;;0.08;87.83
77110;BME280;66062;52.464;16.922;2023-03-12T02:49:54;99829.38;;;0.12;88.37
77110;BME280;66062;52.464;16.922;2023-03-12T02:52:19;99826.28;;;0.20;88.07
77110;BME280;66062;52.464;16.922;2023-03-12T02:54:45;99831.69;;;0.17;87.21
77110;BME280;66062;52.464;16.922;2023-03-12T02:57:11;99834.88;;;0.22;87.14
77110;BME280;66062;52.464;16.922;2023-03-12T02:59:37;99827.22;;;0.19;87.21
77110;BME280;66062;52.464;16.922;2023-03-12T03:02:02;99818.22;;;0.23;86.96
77110;BME280;66062;52.464;16.922;2023-03-12T03:04:29;99832.25;;;0.22;86.67
77110;BME280;66062;52.464;16.922;2023-03-12T03:06:55;99834.25;;;0.18;86.95
77110;BME280;66062;52.464;16.922;2023-03-12T03:09:20;99827.94;;;0.21;86.92
77110;BME280;66062;52.464;16.922;2023-03-12T03:11:47;99826.09;;;0.23;87.42
77110;BME280;66062;52.464;16.922;2023-03-12T03:14:13;99822.69;;;0.21;86.56
77110;BME280;66062;52.464;16.922;2023-03-12T03:16:39;99833.88;;;0.24;87.04
77110;BME280;66062;52.464;16.922;2023-03-12T03:19:04;99833.97;;;0.23;87.24
77110;BME280;66062;52.464;16.922;2023-03-12T03:21:30;99832.47;;;0.19;86.89
77110;BME280;66062;52.464;16.922;2023-03-12T03:23:56;99844.81;;;0.17;87.15
77110;BME280;66062;52.464;16.922;2023-03-12T03:26:22;99847.66;;;0.14;87.64
77110;BME280;66062;52.464;16.922;2023-03-12T03:28:48;99843.81;;;0.05;87.74
77110;BME280;66062;52.464;16.922;2023-03-12T03:31:14;99846.09;;;-0.05;88.48
77110;BME280;66062;52.464;16.922;2023-03-12T03:33:39;99849.13;;;-0.11;88.36
77110;BME280;66062;52.464;16.922;2023-03-12T03:36:07;99856.22;;;-0.13;88.89
77110;BME280;66062;52.464;16.922;2023-03-12T03:38:32;99851.81;;;-0.12;88.87
77110;BME280;66062;52.464;16.922;2023-03-12T03:40:59;99866.91;;;-0.16;89.01
77110;BME280;66062;52.464;16.922;2023-03-12T03:43:25;99876.06;;;-0.23;89.47
77110;BME280;66062;52.464;16.922;2023-03-12T03:46:02;99876.81;;;-0.21;89.51
77110;BME280;66062;52.464;16.922;2023-03-12T03:48:28;99868.22;;;-0.09;88.99
77110;BME280;66062;52.464;16.922;2023-03-12T03:50:53;99874.03;;;-0.04;89.12
77110;BME280;66062;52.464;16.922;2023-03-12T03:53:19;99888.75;;;-0.01;88.89
77110;BME280;66062;52.464;16.922;2023-03-12T03:55:45;99887.81;;;0.00;88.89
77110;BME280;66062;52.464;16.922;2023-03-12T03:58:11;99894.66;;;0.03;88.89
77110;BME280;66062;52.464;16.922;2023-03-12T04:00:36;99899.91;;;0.03;88.49
77110;BME280;66062;52.464;16.922;2023-03-12T04:03:02;99906.91;;;0.02;88.51
77110;BME280;66062;52.464;16.922;2023-03-12T04:05:27;99902.72;;;-0.01;88.74
77110;BME280;66062;52.464;16.922;2023-03-12T04:07:54;99909.53;;;0.02;88.57
77110;BME280;66062;52.464;16.922;2023-03-12T04:10:22;99898.97;;;0.04;88.23
77110;BME280;66062;52.464;16.922;2023-03-12T04:12:49;99901.69;;;0.02;88.77
77110;BME280;66062;52.464;16.922;2023-03-12T04:15:14;99903.94;;;0.08;88.03
77110;BME280;66062;52.464;16.922;2023-03-12T04:17:40;99912.81;;;0.06;88.25
77110;BME280;66062;52.464;16.922;2023-03-12T04:20:05;99912.09;;;0.04;88.20
77110;BME280;66062;52.464;16.922;2023-03-12T04:22:32;99917.91;;;0.09;87.85
77110;BME280;66062;52.464;16.922;2023-03-12T04:24:58;99917.72;;;0.12;87.63
77110;BME280;66062;52.464;16.922;2023-03-12T04:27:23;99928.13;;;0.13;87.70
77110;BME280;66062;52.464;16.922;2023-03-12T04:29:49;99925.56;;;0.12;87.71
77110;BME280;66062;52.464;16.922;2023-03-12T04:32:14;99930.94;;;0.10;87.51
77110;BME280;66062;52.464;16.922;2023-03-12T04:34:40;99939.81;;;0.08;87.65
77110;BME280;66062;52.464;16.922;2023-03-12T04:37:07;99930.25;;;0.07;87.72
77110;BME280;66062;52.464;16.922;2023-03-12T04:39:32;99934.00;;;0.03;88.14
77110;BME280;66062;52.464;16.922;2023-03-12T04:41:58;99934.19;;;-0.01;88.56
77110;BME280;66062;52.464;16.922;2023-03-12T04:44:24;99939.25;;;0.03;88.36
77110;BME280;66062;52.464;16.922;2023-03-12T04:46:49;99938.00;;;-0.06;88.55
77110;BME280;66062;52.464;16.922;2023-03-12T04:49:14;99942.75;;;-0.13;89.33
77110;BME280;66062;52.464;16.922;2023-03-12T04:51:40;99944.81;;;-0.18;88.93
77110;BME280;66062;52.464;16.922;2023-03-12T04:54:06;99952.94;;;-0.22;89.77
77110;BME280;66062;52.464;16.922;2023-03-12T04:56:31;99948.69;;;-0.25;89.55
77110;BME280;66062;52.464;16.922;2023-03-12T04:58:57;99946.25;;;-0.28;90.15
77110;BME280;66062;52.464;16.922;2023-03-12T05:01:34;99950.94;;;-0.33;90.27
77110;BME280;66062;52.464;16.922;2023-03-12T05:04:00;99949.41;;;-0.37;90.29
77110;BME280;66062;52.464;16.922;2023-03-12T05:06:27;99962.53;;;-0.37;90.27
77110;BME280;66062;52.464;16.922;2023-03-12T05:08:52;99960.66;;;-0.35;90.56
77110;BME280;66062;52.464;16.922;2023-03-12T05:11:18;99959.13;;;-0.39;90.69
77110;BME280;66062;52.464;16.922;2023-03-12T05:13:44;99965.31;;;-0.40;90.52
77110;BME280;66062;52.464;16.922;2023-03-12T05:16:11;99970.66;;;-0.41;90.29
77110;BME280;66062;52.464;16.922;2023-03-12T05:18:36;99979.09;;;-0.36;90.18
77110;BME280;66062;52.464;16.922;2023-03-12T05:21:08;99983.75;;;-0.41;90.64
77110;BME280;66062;52.464;16.922;2023-03-12T05:23:35;99973.34;;;-0.43;90.08
77110;BME280;66062;52.464;16.922;2023-03-12T05:26:04;99986.97;;;-0.36;89.91
77110;BME280;66062;52.464;16.922;2023-03-12T05:28:29;99991.09;;;-0.32;89.97
77110;BME280;66062;52.464;16.922;2023-03-12T05:30:56;99992.94;;;-0.34;89.25
77110;BME280;66062;52.464;16.922;2023-03-12T05:33:22;100000.53;;;-0.30;89.39
77110;BME280;66062;52.464;16.922;2023-03-12T05:35:48;100001.66;;;-0.34;89.78
77110;BME280;66062;52.464;16.922;2023-03-12T05:38:38;99997.25;;;-0.33;89.96
77110;BME280;66062;52.464;16.922;2023-03-12T05:41:04;100006.06;;;-0.34;90.04
77110;BME280;66062;52.464;16.922;2023-03-12T05:43:30;100000.53;;;-0.30;89.88
77110;BME280;66062;52.464;16.922;2023-03-12T05:46:01;100011.53;;;-0.23;89.28
77110;BME280;66062;52.464;16.922;2023-03-12T05:48:28;100026.09;;;-0.18;89.53
77110;BME280;66062;52.464;16.922;2023-03-12T05:50:53;100018.81;;;-0.13;89.06
77110;BME280;66062;52.464;16.922;2023-03-12T05:53:19;100024.13;;;-0.14;89.33
77110;BME280;66062;52.464;16.922;2023-03-12T05:55:44;100029.13;;;-0.25;90.28
77110;BME280;66062;52.464;16.922;2023-03-12T05:58:10;100032.69;;;-0.11;89.49
77110;BME280;66062;52.464;16.922;2023-03-12T06:00:35;100040.44;;;-0.09;88.46
77110;BME280;66062;52.464;16.922;2023-03-12T06:03:03;100047.28;;;0.09;88.54
77110;BME280;66062;52.464;16.922;2023-03-12T06:05:30;100050.16;;;0.78;85.12
77110;BME280;66062;52.464;16.922;2023-03-12T06:07:56;100031.78;;;1.76;80.17
77110;BME280;66062;52.464;16.922;2023-03-12T06:10:21;100044.03;;;2.69;75.60
77110;BME280;66062;52.464;16.922;2023-03-12T06:12:47;100041.78;;;3.38;71.56
77110;BME280;66062;52.464;16.922;2023-03-12T06:15:12;100048.31;;;3.82;69.54
77110;BME280;66062;52.464;16.922;2023-03-12T06:17:37;100049.34;;;4.16;68.31
77110;BME280;66062;52.464;16.922;2023-03-12T06:20:03;100052.44;;;4.10;68.33
77110;BME280;66062;52.464;16.922;2023-03-12T06:22:29;100054.56;;;4.05;67.70
77110;BME280;66062;52.464;16.922;2023-03-12T06:24:54;100064.84;;;4.20;67.04
77110;BME280;66062;52.464;16.922;2023-03-12T06:27:20;100057.34;;;4.73;65.11
77110;BME280;66062;52.464;16.922;2023-03-12T06:29:45;100065.06;;;4.98;64.55
77110;BME280;66062;52.464;16.922;2023-03-12T06:32:12;100063.69;;;5.16;62.75
77110;BME280;66062;52.464;16.922;2023-03-12T06:34:37;100070.38;;;5.09;63.34
77110;BME280;66062;52.464;16.922;2023-03-12T06:37:03;100064.84;;;5.79;61.50
77110;BME280;66062;52.464;16.922;2023-03-12T06:39:28;100063.16;;;5.89;60.78
77110;BME280;66062;52.464;16.922;2023-03-12T06:41:54;100062.28;;;6.11;57.93
77110;BME280;66062;52.464;16.922;2023-03-12T06:44:20;100061.19;;;6.66;57.73
77110;BME280;66062;52.464;16.922;2023-03-12T06:46:45;100072.13;;;6.52;57.69
77110;BME280;66062;52.464;16.922;2023-03-12T06:49:11;100069.28;;;8.07;53.73
77110;BME280;66062;52.464;16.922;2023-03-12T06:51:36;100075.88;;;7.72;53.11
77110;BME280;66062;52.464;16.922;2023-03-12T06:54:05;100073.63;;;7.68;53.76
77110;BME280;66062;52.464;16.922;2023-03-12T06:56:31;100074.22;;;7.71;54.18
77110;BME280;66062;52.464;16.922;2023-03-12T06:58:56;100080.31;;;7.62;52.79
77110;BME280;66062;52.464;16.922;2023-03-12T07:01:22;100085.97;;;7.18;55.37
77110;BME280;66062;52.464;16.922;2023-03-12T07:03:48;100087.75;;;7.68;53.22
77110;BME280;66062;52.464;16.922;2023-03-12T07:06:19;100085.22;;;8.07;51.63
77110;BME280;66062;52.464;16.922;2023-03-12T07:08:45;100077.69;;;8.22;51.08
77110;BME280;66062;52.464;16.922;2023-03-12T07:11:10;100088.91;;;8.92;49.16
77110;BME280;66062;52.464;16.922;2023-03-12T07:13:37;100090.63;;;9.30;48.31
77110;BME280;66062;52.464;16.922;2023-03-12T07:16:02;100083.81;;;9.18;46.71
77110;BME280;66062;52.464;16.922;2023-03-12T07:18:28;100100.88;;;9.25;48.51
77110;BME280;66062;52.464;16.922;2023-03-12T07:20:53;100092.84;;;8.59;48.50
77110;BME280;66062;52.464;16.922;2023-03-12T07:23:20;100090.41;;;7.68;52.00
77110;BME280;66062;52.464;16.922;2023-03-12T07:25:45;100097.78;;;8.05;50.74
77110;BME280;66062;52.464;16.922;2023-03-12T07:28:12;100091.66;;;8.14;50.85
77110;BME280;66062;52.464;16.922;2023-03-12T07:30:39;100101.66;;;9.55;47.38
77110;BME280;66062;52.464;16.922;2023-03-12T07:33:07;100098.44;;;8.37;49.67
77110;BME280;66062;52.464;16.922;2023-03-12T07:35:33;100095.88;;;8.16;49.81
77110;BME280;66062;52.464;16.922;2023-03-12T07:37:59;100106.63;;;7.65;51.36
77110;BME280;66062;52.464;16.922;2023-03-12T07:40:25;100107.41;;;8.36;50.04
77110;BME280;66062;52.464;16.922;2023-03-12T07:42:51;100108.44;;;9.39;47.42
77110;BME280;66062;52.464;16.922;2023-03-12T07:45:17;100109.03;;;9.61;46.24
77110;BME280;66062;52.464;16.922;2023-03-12T07:47:44;100114.13;;;8.50;48.06
77110;BME280;66062;52.464;16.922;2023-03-12T07:50:10;100117.06;;;8.37;48.11
77110;BME280;66062;52.464;16.922;2023-03-12T07:52:36;100116.22;;;8.75;47.67
77110;BME280;66062;52.464;16.922;2023-03-12T07:55:03;100119.59;;;9.53;46.33
77110;BME280;66062;52.464;16.922;2023-03-12T07:57:29;100113.75;;;9.76;45.85
77110;BME280;66062;52.464;16.922;2023-03-12T07:59:54;100119.09;;;10.31;42.59
77110;BME280;66062;52.464;16.922;2023-03-12T08:02:20;100120.22;;;10.56;42.99
77110;BME280;66062;52.464;16.922;2023-03-12T08:04:46;100125.28;;;10.32;42.64
77110;BME280;66062;52.464;16.922;2023-03-12T08:07:12;100118.44;;;9.55;43.38
77110;BME280;66062;52.464;16.922;2023-03-12T08:09:38;100130.00;;;9.36;44.47
77110;BME280;66062;52.464;16.922;2023-03-12T08:12:05;100129.34;;;9.71;43.10
77110;BME280;66062;52.464;16.922;2023-03-12T08:14:31;100131.06;;;8.97;44.25
77110;BME280;66062;52.464;16.922;2023-03-12T08:16:57;100123.13;;;10.17;40.99
77110;BME280;66062;52.464;16.922;2023-03-12T08:19:23;100119.56;;;10.26;41.26
77110;BME280;66062;52.464;16.922;2023-03-12T08:21:49;100123.94;;;10.45;40.19
77110;BME280;66062;52.464;16.922;2023-03-12T08:24:15;100116.41;;;10.41;40.21
77110;BME280;66062;52.464;16.922;2023-03-12T08:26:41;100132.09;;;9.89;41.20
77110;BME280;66062;52.464;16.922;2023-03-12T08:29:06;100131.88;;;10.90;39.96
77110;BME280;66062;52.464;16.922;2023-03-12T08:31:32;100139.13;;;10.17;41.23
77110;BME280;66062;52.464;16.922;2023-03-12T08:33:57;100126.88;;;10.24;40.10
77110;BME280;66062;52.464;16.922;2023-03-12T08:36:22;100139.53;;;10.13;38.89
77110;BME280;66062;52.464;16.922;2023-03-12T08:38:48;100132.72;;;10.73;39.34
77110;BME280;66062;52.464;16.922;2023-03-12T08:41:13;100135.84;;;10.86;38.64
77110;BME280;66062;52.464;16.922;2023-03-12T08:43:39;100139.78;;;11.43;36.95
77110;BME280;66062;52.464;16.922;2023-03-12T08:46:04;100137.59;;;10.95;36.83
77110;BME280;66062;52.464;16.922;2023-03-12T08:48:31;100142.22;;;11.11;37.02
77110;BME280;66062;52.464;16.922;2023-03-12T08:50:58;100147.19;;;12.09;35.06
77110;BME280;66062;52.464;16.922;2023-03-12T08:53:25;100144.13;;;11.70;34.92
77110;BME280;66062;52.464;16.922;2023-03-12T08:55:52;100155.28;;;10.96;36.08
77110;BME280;66062;52.464;16.922;2023-03-12T08:58:18;100159.09;;;9.67;38.55
77110;BME280;66062;52.464;16.922;2023-03-12T09:00:44;100154.97;;;11.94;35.14
77110;BME280;66062;52.464;16.922;2023-03-12T09:03:09;100152.00;;;11.46;36.06
77110;BME280;66062;52.464;16.922;2023-03-12T09:05:38;100160.63;;;9.04;40.59
77110;BME280;66062;52.464;16.922;2023-03-12T09:08:04;100175.56;;;10.26;38.21
77110;BME280;66062;52.464;16.922;2023-03-12T09:10:29;100176.19;;;9.74;38.64
77110;BME280;66062;52.464;16.922;2023-03-12T09:12:55;100172.69;;;10.38;37.87
77110;BME280;66062;52.464;16.922;2023-03-12T09:15:20;100172.34;;;9.39;40.54
77110;BME280;66062;52.464;16.922;2023-03-12T09:17:46;100182.75;;;9.14;40.91
77110;BME280;66062;52.464;16.922;2023-03-12T09:20:12;100179.94;;;7.57;44.82
77110;BME280;66062;52.464;16.922;2023-03-12T09:22:39;100195.59;;;6.66;46.47
77110;BME280;66062;52.464;16.922;2023-03-12T09:25:07;100199.44;;;6.08;47.43
77110;BME280;66062;52.464;16.922;2023-03-12T09:27:46;100191.34;;;7.48;46.89
77110;BME280;66062;52.464;16.922;2023-03-12T09:30:16;100185.28;;;9.71;40.45
77110;BME280;66062;52.464;16.922;2023-03-12T09:32:42;100190.44;;;8.29;44.23
77110;BME280;66062;52.464;16.922;2023-03-12T09:35:09;100189.50;;;7.99;45.19
77110;BME280;66062;52.464;16.922;2023-03-12T09:37:35;100193.47;;;9.60;41.96
77110;BME280;66062;52.464;16.922;2023-03-12T09:40:00;100192.25;;;10.56;39.81
77110;BME280;66062;52.464;16.922;2023-03-12T09:42:32;100203.31;;;9.97;41.04
77110;BME280;66062;52.464;16.922;2023-03-12T09:45:02;100185.16;;;10.19;41.44
77110;BME280;66062;52.464;16.922;2023-03-12T09:47:30;100190.78;;;12.02;35.89
77110;BME280;66062;52.464;16.922;2023-03-12T09:50:04;100192.25;;;10.28;39.09
77110;BME280;66062;52.464;16.922;2023-03-12T09:52:44;100195.06;;;11.43;36.39
77110;BME280;66062;52.464;16.922;2023-03-12T09:55:16;100184.53;;;11.41;37.35
77110;BME280;66062;52.464;16.922;2023-03-12T09:57:43;100192.13;;;10.75;39.50
77110;BME280;66062;52.464;16.922;2023-03-12T10:00:13;100182.97;;;10.78;38.70
77110;BME280;66062;52.464;16.922;2023-03-12T10:13:54;100176.69;;;13.73;33.43
77110;BME280;66062;52.464;16.922;2023-03-12T10:16:47;100175.19;;;14.95;31.19
77110;BME280;66062;52.464;16.922;2023-03-12T10:19:22;100173.66;;;15.38;29.81
77110;BME280;66062;52.464;16.922;2023-03-12T10:26:59;100191.44;;;13.04;34.75
77110;BME280;66062;52.464;16.922;2023-03-12T10:29:31;100197.69;;;13.37;33.49
77110;BME280;66062;52.464;16.922;2023-03-12T10:32:03;100195.00;;;13.37;32.63
77110;BME280;66062;52.464;16.922;2023-03-12T10:34:52;100196.38;;;13.41;32.65
77110;BME280;66062;52.464;16.922;2023-03-12T10:37:27;100194.63;;;12.33;35.13
77110;BME280;66062;52.464;16.922;2023-03-12T10:39:54;100194.34;;;13.18;33.80
77110;BME280;66062;52.464;16.922;2023-03-12T10:42:25;100194.28;;;12.94;34.07
77110;BME280;66062;52.464;16.922;2023-03-12T10:44:53;100197.94;;;12.77;34.34
77110;BME280;66062;52.464;16.922;2023-03-12T10:47:37;100197.44;;;11.28;37.67
77110;BME280;66062;52.464;16.922;2023-03-12T10:50:13;100193.22;;;12.71;35.06
77110;BME280;66062;52.464;16.922;2023-03-12T10:52:40;100196.81;;;14.40;32.26
77110;BME280;66062;52.464;16.922;2023-03-12T10:55:12;100195.50;;;13.16;32.97
77110;BME280;66062;52.464;16.922;2023-03-12T10:57:44;100202.22;;;13.28;32.17
77110;BME280;66062;52.464;16.922;2023-03-12T11:00:17;100202.69;;;11.55;34.54
77110;BME280;66062;52.464;16.922;2023-03-12T11:02:44;100209.22;;;10.00;38.25
77110;BME280;66062;52.464;16.922;2023-03-12T11:05:30;100204.41;;;9.57;39.83
77110;BME280;66062;52.464;16.922;2023-03-12T11:07:57;100205.75;;;9.90;39.62
77110;BME280;66062;52.464;16.922;2023-03-12T11:10:41;100203.22;;;9.04;40.38
77110;BME280;66062;52.464;16.922;2023-03-12T11:15:52;100203.28;;;10.06;39.51
77110;BME280;66062;52.464;16.922;2023-03-12T11:18:27;100196.94;;;9.70;41.02
77110;BME280;66062;52.464;16.922;2023-03-12T11:21:12;100197.84;;;9.98;38.94
77110;BME280;66062;52.464;16.922;2023-03-12T11:23:41;100203.22;;;9.13;40.19
77110;BME280;66062;52.464;16.922;2023-03-12T11:26:18;100202.06;;;8.68;40.85
77110;BME280;66062;52.464;16.922;2023-03-12T11:28:47;100198.16;;;8.91;39.32
77110;BME280;66062;52.464;16.922;2023-03-12T11:32:29;100197.03;;;9.22;40.34
77110;BME280;66062;52.464;16.922;2023-03-12T11:34:30;100207.03;;;9.76;39.05
77110;BME280;66062;52.464;16.922;2023-03-12T11:37:05;100189.88;;;10.53;37.33
77110;BME280;66062;52.464;16.922;2023-03-12T11:39:53;100186.31;;;11.15;36.92
77110;BME280;66062;52.464;16.922;2023-03-12T11:48:27;100175.97;;;12.57;32.94
77110;BME280;66062;52.464;16.922;2023-03-12T11:51:31;100172.56;;;13.38;32.59
77110;BME280;66062;52.464;16.922;2023-03-12T11:54:11;100176.19;;;13.85;31.72
77110;BME280;66062;52.464;16.922;2023-03-12T12:27:28;100179.09;;;9.05;39.93
77110;BME280;66062;52.464;16.922;2023-03-12T12:35:38;100171.19;;;9.98;40.36
77110;BME280;66062;52.464;16.922;2023-03-12T12:40:49;100157.50;;;11.70;36.10
77110;BME280;66062;52.464;16.922;2023-03-12T12:46:41;100165.63;;;12.86;34.85
77110;BME280;66062;52.464;16.922;2023-03-12T12:49:13;100166.13;;;12.82;32.54
77110;BME280;66062;52.464;16.922;2023-03-12T12:51:47;100163.50;;;13.47;32.64
77110;BME280;66062;52.464;16.922;2023-03-12T12:57:26;100150.56;;;12.85;33.30
77110;BME280;66062;52.464;16.922;2023-03-12T13:02:37;100146.88;;;11.52;34.90
77110;BME280;66062;52.464;16.922;2023-03-12T13:05:17;100146.06;;;12.20;34.59
77110;BME280;66062;52.464;16.922;2023-03-12T13:07:42;100148.44;;;13.38;31.90
77110;BME280;66062;52.464;16.922;2023-03-12T13:12:57;100143.44;;;12.28;32.71
77110;BME280;66062;52.464;16.922;2023-03-12T13:20:29;100151.16;;;10.49;37.18
77110;BME280;66062;52.464;16.922;2023-03-12T13:23:02;100163.13;;;10.08;37.13
77110;BME280;66062;52.464;16.922;2023-03-12T13:25:57;100169.84;;;9.28;38.62
77110;BME280;66062;52.464;16.922;2023-03-12T13:28:37;100180.25;;;8.93;38.87
77110;BME280;66062;52.464;16.922;2023-03-12T13:36:45;100167.41;;;8.39;40.41
77110;BME280;66062;52.464;16.922;2023-03-12T13:39:17;100162.00;;;8.79;39.92
77110;BME280;66062;52.464;16.922;2023-03-12T13:41:49;100158.34;;;8.51;40.35
77110;BME280;66062;52.464;16.922;2023-03-12T13:49:42;100154.84;;;10.11;35.38
77110;BME280;66062;52.464;16.922;2023-03-12T13:55:00;100159.94;;;8.82;37.62
77110;BME280;66062;52.464;16.922;2023-03-12T13:57:33;100153.03;;;8.41;39.98
77110;BME280;66062;52.464;16.922;2023-03-12T14:00:01;100157.94;;;8.65;40.48
77110;BME280;66062;52.464;16.922;2023-03-12T14:02:33;100164.75;;;8.39;39.66
77110;BME280;66062;52.464;16.922;2023-03-12T14:05:08;100162.34;;;7.56;39.43
77110;BME280;66062;52.464;16.922;2023-03-12T14:15:44;100154.88;;;7.70;40.34
77110;BME280;66062;52.464;16.922;2023-03-12T14:18:19;100157.63;;;7.39;40.60
77110;BME280;66062;52.464;16.922;2023-03-12T14:20:55;100149.88;;;7.26;41.28
77110;BME280;66062;52.464;16.922;2023-03-12T14:23:27;100151.06;;;6.80;41.98
77110;BME280;66062;52.464;16.922;2023-03-12T14:25:57;100145.31;;;6.75;43.52
77110;BME280;66062;52.464;16.922;2023-03-12T14:28:24;100142.38;;;6.47;43.84
77110;BME280;66062;52.464;16.922;2023-03-12T14:30:57;100140.97;;;6.31;43.83
77110;BME280;66062;52.464;16.922;2023-03-12T14:33:26;100133.81;;;6.11;45.12
77110;BME280;66062;52.464;16.922;2023-03-12T14:36:05;100143.78;;;6.19;45.78
77110;BME280;66062;52.464;16.922;2023-03-12T14:38:36;100149.09;;;6.08;47.28
77110;BME280;66062;52.464;16.922;2023-03-12T14:41:26;100146.25;;;6.42;46.62